sensor_id;sensor_type;location;lat;lon;timestamp;temperature;humidity
1976;DHT22;988;48.016;7.800;2022-12-18T00:01:51;-3.20;99.90
1976;DHT22;988;48.016;7.800;2022-12-18T00:04:23;-3.20;99.90
1976;DHT22;988;48.016;7.800;2022-12-18T00:06:49;-3.20;99.90
1976;DHT22;988;48.016;7.800;2022-12-18T00:09:15;-3.10;99.90
1976;DHT22;988;48.016;7.800;2022-12-18T00:11:44;-3.10;99.90
1976;DHT22;988;48.016;7.800;2022-12-18T00:14:13;-3.20;99.90
1976;DHT22;988;48.016;7.800;2022-12-18T00:16:39;-3.40;99.90
1976;DHT22;988;48.016;7.800;2022-12-18T00:19:05;-3.40;99.90
1976;DHT22;988;48.016;7.800;2022-12-18T00:21:33;-3.40;99.90
1976;DHT22;988;48.016;7.800;2022-12-18T00:24:00;-3.60;99.90
1976;DHT22;988;48.016;7.800;2022-12-18T00:26:31;-3.50;99.90
1976;DHT22;988;48.016;7.800;2022-12-18T00:29:11;-3.50;99.90
1976;DHT22;988;48.016;7.800;2022-12-18T00:31:39;-3.60;99.90
1976;DHT22;988;48.016;7.800;2022-12-18T00:34:05;-3.60;99.90
1976;DHT22;988;48.016;7.800;2022-12-18T00:36:33;-3.50;99.90
1976;DHT22;988;48.016;7.800;2022-12-18T00:39:00;-3.70;99.90
1976;DHT22;988;48.016;7.800;2022-12-18T00:41:26;-3.70;99.90
1976;DHT22;988;48.016;7.800;2022-12-18T00:44:13;-3.80;99.90
1976;DHT22;988;48.016;7.800;2022-12-18T00:46:39;-4.00;99.90
1976;DHT22;988;48.016;7.800;2022-12-18T00:49:05;-3.80;99.90
1976;DHT22;988;48.016;7.800;2022-12-18T00:51:31;-3.70;99.90
1976;DHT22;988;48.016;7.800;2022-12-18T00:53:56;-3.70;99.90
1976;DHT22;988;48.016;7.800;2022-12-18T00:56:23;-3.80;99.90
1976;DHT22;988;48.016;7.800;2022-12-18T00:58:48;-3.70;99.90
1976;DHT22;988;48.016;7.800;2022-12-18T01:01:14;-3.50;99.90
1976;DHT22;988;48.016;7.800;2022-12-18T01:03:40;-3.50;99.90
1976;DHT22;988;48.016;7.800;2022-12-18T01:06:10;-3.60;99.90
1976;DHT22;988;48.016;7.800;2022-12-18T01:08:37;-3.50;99.90
1976;DHT22;988;48.016;7.800;2022-12-18T01:11:13;-3.50;99.90
1976;DHT22;988;48.016;7.800;2022-12-18T01:13:40;-3.40;99.90
1976;DHT22;988;48.016;7.800;2022-12-18T01:16:06;-3.50;99.90
1976;DHT22;988;48.016;7.800;2022-12-18T01:18:32;-3.40;99.90
1976;DHT22;988;48.016;7.800;2022-12-18T01:20:57;-3.40;99.90
1976;DHT22;988;48.016;7.800;2022-12-18T01:23:23;-3.50;99.90
1976;DHT22;988;48.016;7.800;2022-12-18T01:25:48;-3.50;99.90
1976;DHT22;988;48.016;7.800;2022-12-18T01:28:14;-3.40;99.90
1976;DHT22;988;48.016;7.800;2022-12-18T01:30:39;-3.30;99.90
1976;DHT22;988;48.016;7.800;2022-12-18T01:33:05;-3.30;99.90
1976;DHT22;988;48.016;7.800;2022-12-18T01:35:31;-3.40;99.90
1976;DHT22;988;48.016;7.800;2022-12-18T01:37:57;-3.30;99.90
1976;DHT22;988;48.016;7.800;2022-12-18T01:40:23;-3.30;99.90
1976;DHT22;988;48.016;7.800;2022-12-18T01:42:52;-3.40;99.90
1976;DHT22;988;48.016;7.800;2022-12-18T01:47:45;-3.50;99.90
1976;DHT22;988;48.016;7.800;2022-12-18T01:52:47;-3.40;99.90
1976;DHT22;988;48.016;7.800;2022-12-18T01:55:18;-3.30;99.90
1976;DHT22;988;48.016;7.800;2022-12-18T01:57:44;-3.20;99.90
1976;DHT22;988;48.016;7.800;2022-12-18T02:00:18;-3.20;99.90
1976;DHT22;988;48.016;7.800;2022-12-18T02:02:46;-3.40;99.90
1976;DHT22;988;48.016;7.800;2022-12-18T02:05:15;-3.60;99.90
1976;DHT22;988;48.016;7.800;2022-12-18T02:10:40;-3.70;99.90
1976;DHT22;988;48.016;7.800;2022-12-18T02:13:11;-3.70;99.90
1976;DHT22;988;48.016;7.800;2022-12-18T02:15:44;-3.70;99.90
1976;DHT22;988;48.016;7.800;2022-12-18T02:18:19;-3.70;99.90
1976;DHT22;988;48.016;7.800;2022-12-18T02:20:59;-3.80;99.90
1976;DHT22;988;48.016;7.800;2022-12-18T02:23:56;-3.80;99.90
1976;DHT22;988;48.016;7.800;2022-12-18T02:26:38;-3.70;99.90
1976;DHT22;988;48.016;7.800;2022-12-18T02:29:29;-4.10;99.90
1976;DHT22;988;48.016;7.800;2022-12-18T02:31:58;-4.20;99.90
1976;DHT22;988;48.016;7.800;2022-12-18T02:34:28;-4.20;99.90
1976;DHT22;988;48.016;7.800;2022-12-18T02:36:55;-4.10;99.90
1976;DHT22;988;48.016;7.800;2022-12-18T02:39:25;-4.10;99.90
1976;DHT22;988;48.016;7.800;2022-12-18T02:41:52;-4.20;99.90
1976;DHT22;988;48.016;7.800;2022-12-18T02:44:17;-4.30;99.90
1976;DHT22;988;48.016;7.800;2022-12-18T02:46:50;-4.30;99.90
1976;DHT22;988;48.016;7.800;2022-12-18T02:52:48;-4.20;99.90
1976;DHT22;988;48.016;7.800;2022-12-18T02:55:00;-4.30;99.90
1976;DHT22;988;48.016;7.800;2022-12-18T02:57:42;-4.30;99.90
1976;DHT22;988;48.016;7.800;2022-12-18T03:00:10;-4.30;99.90
1976;DHT22;988;48.016;7.800;2022-12-18T03:02:54;-4.20;99.90
1976;DHT22;988;48.016;7.800;2022-12-18T03:05:41;-4.20;99.90
1976;DHT22;988;48.016;7.800;2022-12-18T03:08:14;-4.10;99.90
1976;DHT22;988;48.016;7.800;2022-12-18T03:10:46;-3.80;99.90
1976;DHT22;988;48.016;7.800;2022-12-18T03:13:16;-3.80;99.90
1976;DHT22;988;48.016;7.800;2022-12-18T03:15:47;-3.80;99.90
1976;DHT22;988;48.016;7.800;2022-12-18T03:18:43;-4.00;99.90
1976;DHT22;988;48.016;7.800;2022-12-18T03:21:08;-3.90;99.90
1976;DHT22;988;48.016;7.800;2022-12-18T03:23:49;-3.90;99.90
1976;DHT22;988;48.016;7.800;2022-12-18T03:26:19;-3.80;99.90
1976;DHT22;988;48.016;7.800;2022-12-18T03:28:51;-3.80;99.90
1976;DHT22;988;48.016;7.800;2022-12-18T03:31:21;-3.90;99.90
1976;DHT22;988;48.016;7.800;2022-12-18T03:33:55;-3.90;99.90
1976;DHT22;988;48.016;7.800;2022-12-18T03:36:21;-3.90;99.90
1976;DHT22;988;48.016;7.800;2022-12-18T03:38:48;-4.00;99.90
1976;DHT22;988;48.016;7.800;2022-12-18T03:42:01;-4.00;99.90
1976;DHT22;988;48.016;7.800;2022-12-18T03:44:21;-4.00;99.90
1976;DHT22;988;48.016;7.800;2022-12-18T03:52:38;-4.00;99.90
1976;DHT22;988;48.016;7.800;2022-12-18T03:55:07;-4.20;99.90
1976;DHT22;988;48.016;7.800;2022-12-18T03:57:33;-4.10;99.90
1976;DHT22;988;48.016;7.800;2022-12-18T04:00:05;-4.10;99.90
1976;DHT22;988;48.016;7.800;2022-12-18T04:02:32;-4.20;99.90
1976;DHT22;988;48.016;7.800;2022-12-18T04:05:03;-4.10;99.90
1976;DHT22;988;48.016;7.800;2022-12-18T04:07:30;-4.30;99.90
1976;DHT22;988;48.016;7.800;2022-12-18T04:09:57;-4.40;99.90
1976;DHT22;988;48.016;7.800;2022-12-18T04:12:25;-4.70;99.90
1976;DHT22;988;48.016;7.800;2022-12-18T04:14:51;-4.60;99.90
1976;DHT22;988;48.016;7.800;2022-12-18T04:17:17;-4.40;99.90
1976;DHT22;988;48.016;7.800;2022-12-18T04:19:42;-4.20;99.90
1976;DHT22;988;48.016;7.800;2022-12-18T04:22:10;-4.10;99.90
1976;DHT22;988;48.016;7.800;2022-12-18T04:24:35;-4.00;99.90
1976;DHT22;988;48.016;7.800;2022-12-18T04:27:01;-4.00;99.90
1976;DHT22;988;48.016;7.800;2022-12-18T04:29:29;-4.10;99.90
1976;DHT22;988;48.016;7.800;2022-12-18T04:31:55;-4.20;99.90
1976;DHT22;988;48.016;7.800;2022-12-18T04:34:20;-4.40;99.90
1976;DHT22;988;48.016;7.800;2022-12-18T04:36:46;-4.50;99.90
1976;DHT22;988;48.016;7.800;2022-12-18T04:39:12;-4.50;99.90
1976;DHT22;988;48.016;7.800;2022-12-18T04:41:38;-4.70;99.90
1976;DHT22;988;48.016;7.800;2022-12-18T04:44:04;-4.70;99.90
1976;DHT22;988;48.016;7.800;2022-12-18T04:46:29;-4.70;99.90
1976;DHT22;988;48.016;7.800;2022-12-18T04:48:55;-4.80;99.90
1976;DHT22;988;48.016;7.800;2022-12-18T04:51:21;-4.50;99.90
1976;DHT22;988;48.016;7.800;2022-12-18T04:53:46;-4.50;99.90
1976;DHT22;988;48.016;7.800;2022-12-18T04:56:14;-4.40;99.90
1976;DHT22;988;48.016;7.800;2022-12-18T04:58:42;-4.40;99.90
1976;DHT22;988;48.016;7.800;2022-12-18T05:01:08;-4.70;99.90
1976;DHT22;988;48.016;7.800;2022-12-18T05:03:35;-4.70;99.90
1976;DHT22;988;48.016;7.800;2022-12-18T05:06:01;-4.80;99.90
1976;DHT22;988;48.016;7.800;2022-12-18T05:08:26;-4.70;99.90
1976;DHT22;988;48.016;7.800;2022-12-18T05:11:06;-4.50;99.90
1976;DHT22;988;48.016;7.800;2022-12-18T05:13:33;-4.60;99.90
1976;DHT22;988;48.016;7.800;2022-12-18T05:15:59;-4.60;99.90
1976;DHT22;988;48.016;7.800;2022-12-18T05:18:25;-4.70;99.90
1976;DHT22;988;48.016;7.800;2022-12-18T05:20:52;-4.60;99.90
1976;DHT22;988;48.016;7.800;2022-12-18T05:23:18;-4.70;99.90
1976;DHT22;988;48.016;7.800;2022-12-18T05:28:17;-4.90;99.90
1976;DHT22;988;48.016;7.800;2022-12-18T05:30:46;-5.00;99.90
1976;DHT22;988;48.016;7.800;2022-12-18T05:33:12;-5.10;99.90
1976;DHT22;988;48.016;7.800;2022-12-18T05:35:37;-5.10;99.90
1976;DHT22;988;48.016;7.800;2022-12-18T05:38:03;-5.00;99.90
1976;DHT22;988;48.016;7.800;2022-12-18T05:40:29;-4.90;99.90
1976;DHT22;988;48.016;7.800;2022-12-18T05:42:54;-4.90;99.90
1976;DHT22;988;48.016;7.800;2022-12-18T05:45:20;-4.80;99.90
1976;DHT22;988;48.016;7.800;2022-12-18T05:47:45;-4.90;99.90
1976;DHT22;988;48.016;7.800;2022-12-18T05:50:11;-4.90;99.90
1976;DHT22;988;48.016;7.800;2022-12-18T05:52:36;-4.90;99.90
1976;DHT22;988;48.016;7.800;2022-12-18T05:55:02;-5.00;99.90
1976;DHT22;988;48.016;7.800;2022-12-18T05:57:28;-5.00;99.90
1976;DHT22;988;48.016;7.800;2022-12-18T05:59:54;-4.90;99.90
1976;DHT22;988;48.016;7.800;2022-12-18T06:02:19;-4.90;99.90
1976;DHT22;988;48.016;7.800;2022-12-18T06:04:46;-4.80;99.90
1976;DHT22;988;48.016;7.800;2022-12-18T06:07:12;-4.80;99.90
1976;DHT22;988;48.016;7.800;2022-12-18T06:09:38;-4.90;99.90
1976;DHT22;988;48.016;7.800;2022-12-18T06:12:03;-4.80;99.90
1976;DHT22;988;48.016;7.800;2022-12-18T06:14:29;-4.70;99.90
1976;DHT22;988;48.016;7.800;2022-12-18T06:16:55;-4.80;99.90
1976;DHT22;988;48.016;7.800;2022-12-18T06:19:20;-4.80;99.90
1976;DHT22;988;48.016;7.800;2022-12-18T06:21:46;-4.60;99.90
1976;DHT22;988;48.016;7.800;2022-12-18T06:24:12;-4.80;99.90
1976;DHT22;988;48.016;7.800;2022-12-18T06:26:38;-4.70;99.90
1976;DHT22;988;48.016;7.800;2022-12-18T06:29:05;-4.70;99.90
1976;DHT22;988;48.016;7.800;2022-12-18T06:31:31;-4.70;99.90
1976;DHT22;988;48.016;7.800;2022-12-18T06:33:56;-4.60;99.90
1976;DHT22;988;48.016;7.800;2022-12-18T06:36:22;-4.70;99.90
1976;DHT22;988;48.016;7.800;2022-12-18T06:38:47;-4.60;99.90
1976;DHT22;988;48.016;7.800;2022-12-18T06:41:19;-4.60;99.90
1976;DHT22;988;48.016;7.800;2022-12-18T06:43:45;-4.80;99.90
1976;DHT22;988;48.016;7.800;2022-12-18T06:46:11;-4.80;99.90
1976;DHT22;988;48.016;7.800;2022-12-18T06:48:37;-4.80;99.90
1976;DHT22;988;48.016;7.800;2022-12-18T06:51:03;-4.80;99.90
1976;DHT22;988;48.016;7.800;2022-12-18T06:53:29;-4.70;99.90
1976;DHT22;988;48.016;7.800;2022-12-18T06:56:06;-4.50;99.90
1976;DHT22;988;48.016;7.800;2022-12-18T06:58:32;-4.70;99.90
1976;DHT22;988;48.016;7.800;2022-12-18T07:01:05;-4.80;99.90
1976;DHT22;988;48.016;7.800;2022-12-18T07:03:33;-4.70;99.90
1976;DHT22;988;48.016;7.800;2022-12-18T07:05:59;-4.80;99.90
1976;DHT22;988;48.016;7.800;2022-12-18T07:08:25;-4.80;99.90
1976;DHT22;988;48.016;7.800;2022-12-18T07:10:50;-4.70;99.90
1976;DHT22;988;48.016;7.800;2022-12-18T07:13:16;-4.90;99.90
1976;DHT22;988;48.016;7.800;2022-12-18T07:15:43;-4.90;99.90
1976;DHT22;988;48.016;7.800;2022-12-18T07:18:09;-4.90;99.90
1976;DHT22;988;48.016;7.800;2022-12-18T07:20:34;-5.10;99.90
1976;DHT22;988;48.016;7.800;2022-12-18T07:23:23;-5.20;99.90
1976;DHT22;988;48.016;7.800;2022-12-18T07:25:50;-5.20;99.90
1976;DHT22;988;48.016;7.800;2022-12-18T07:28:16;-5.10;99.90
1976;DHT22;988;48.016;7.800;2022-12-18T07:30:51;-5.00;99.90
1976;DHT22;988;48.016;7.800;2022-12-18T07:33:19;-5.10;99.90
1976;DHT22;988;48.016;7.800;2022-12-18T07:35:45;-5.10;99.90
1976;DHT22;988;48.016;7.800;2022-12-18T07:38:18;-5.20;99.90
1976;DHT22;988;48.016;7.800;2022-12-18T07:40:46;-5.20;99.90
1976;DHT22;988;48.016;7.800;2022-12-18T07:43:12;-5.40;99.90
1976;DHT22;988;48.016;7.800;2022-12-18T07:45:37;-5.30;99.90
1976;DHT22;988;48.016;7.800;2022-12-18T07:48:09;-5.00;99.90
1976;DHT22;988;48.016;7.800;2022-12-18T07:50:38;-4.80;99.90
1976;DHT22;988;48.016;7.800;2022-12-18T07:53:10;-5.00;99.90
1976;DHT22;988;48.016;7.800;2022-12-18T07:55:36;-5.10;99.90
1976;DHT22;988;48.016;7.800;2022-12-18T07:58:03;-5.10;99.90
1976;DHT22;988;48.016;7.800;2022-12-18T08:00:39;-4.90;99.90
1976;DHT22;988;48.016;7.800;2022-12-18T08:03:05;-5.00;99.90
1976;DHT22;988;48.016;7.800;2022-12-18T08:05:30;-5.00;99.90
1976;DHT22;988;48.016;7.800;2022-12-18T08:07:58;-5.00;99.90
1976;DHT22;988;48.016;7.800;2022-12-18T08:10:23;-5.10;99.90
1976;DHT22;988;48.016;7.800;2022-12-18T08:12:50;-4.80;99.90
1976;DHT22;988;48.016;7.800;2022-12-18T08:15:16;-4.70;99.90
1976;DHT22;988;48.016;7.800;2022-12-18T08:17:42;-4.60;99.90
1976;DHT22;988;48.016;7.800;2022-12-18T08:20:08;-4.40;99.90
1976;DHT22;988;48.016;7.800;2022-12-18T08:22:37;-4.20;99.90
1976;DHT22;988;48.016;7.800;2022-12-18T08:25:04;-4.20;99.90
1976;DHT22;988;48.016;7.800;2022-12-18T08:27:30;-3.70;99.90
1976;DHT22;988;48.016;7.800;2022-12-18T08:29:56;-3.30;99.90
1976;DHT22;988;48.016;7.800;2022-12-18T08:32:22;-2.90;99.90
1976;DHT22;988;48.016;7.800;2022-12-18T08:34:47;-2.60;99.90
1976;DHT22;988;48.016;7.800;2022-12-18T08:37:13;-2.40;99.90
1976;DHT22;988;48.016;7.800;2022-12-18T08:39:38;-2.50;99.50
1976;DHT22;988;48.016;7.800;2022-12-18T08:42:04;-3.00;99.20
1976;DHT22;988;48.016;7.800;2022-12-18T08:44:54;-3.20;99.60
1976;DHT22;988;48.016;7.800;2022-12-18T08:47:19;-3.20;99.90
1976;DHT22;988;48.016;7.800;2022-12-18T08:49:45;-3.30;99.90
1976;DHT22;988;48.016;7.800;2022-12-18T08:52:10;-3.10;99.90
1976;DHT22;988;48.016;7.800;2022-12-18T08:54:36;-3.10;99.30
1976;DHT22;988;48.016;7.800;2022-12-18T08:57:02;-3.10;99.70
1976;DHT22;988;48.016;7.800;2022-12-18T08:59:29;-3.30;99.90
1976;DHT22;988;48.016;7.800;2022-12-18T09:01:55;-3.20;99.90
1976;DHT22;988;48.016;7.800;2022-12-18T09:04:21;-3.00;99.90
1976;DHT22;988;48.016;7.800;2022-12-18T09:06:46;-2.50;99.90
1976;DHT22;988;48.016;7.800;2022-12-18T09:09:12;-2.30;99.50
1976;DHT22;988;48.016;7.800;2022-12-18T09:11:38;-2.00;98.90
1976;DHT22;988;48.016;7.800;2022-12-18T09:14:04;-2.00;97.70
1976;DHT22;988;48.016;7.800;2022-12-18T09:16:29;-1.90;97.50
1976;DHT22;988;48.016;7.800;2022-12-18T09:18:56;-1.60;96.30
1976;DHT22;988;48.016;7.800;2022-12-18T09:21:26;-1.30;96.10
1976;DHT22;988;48.016;7.800;2022-12-18T09:23:53;-1.10;95.20
1976;DHT22;988;48.016;7.800;2022-12-18T09:26:21;-0.50;94.00
1976;DHT22;988;48.016;7.800;2022-12-18T09:28:46;0.50;92.80
1976;DHT22;988;48.016;7.800;2022-12-18T09:31:17;1.60;90.30
1976;DHT22;988;48.016;7.800;2022-12-18T09:33:43;3.20;83.20
1976;DHT22;988;48.016;7.800;2022-12-18T09:38:41;6.30;70.10
1976;DHT22;988;48.016;7.800;2022-12-18T09:46:38;11.90;48.90
1976;DHT22;988;48.016;7.800;2022-12-18T09:49:11;13.00;45.50
1976;DHT22;988;48.016;7.800;2022-12-18T09:51:45;12.50;44.60
1976;DHT22;988;48.016;7.800;2022-12-18T09:54:50;13.10;44.10
1976;DHT22;988;48.016;7.800;2022-12-18T09:57:21;13.10;44.80
1976;DHT22;988;48.016;7.800;2022-12-18T09:59:55;13.80;44.70
1976;DHT22;988;48.016;7.800;2022-12-18T10:02:24;14.30;40.00
1976;DHT22;988;48.016;7.800;2022-12-18T10:07:42;15.80;36.90
1976;DHT22;988;48.016;7.800;2022-12-18T10:10:21;15.40;36.20
1976;DHT22;988;48.016;7.800;2022-12-18T10:13:09;15.40;36.60
1976;DHT22;988;48.016;7.800;2022-12-18T10:24:41;16.70;34.60
1976;DHT22;988;48.016;7.800;2022-12-18T10:27:29;16.20;34.40
1976;DHT22;988;48.016;7.800;2022-12-18T10:29:56;18.10;33.90
1976;DHT22;988;48.016;7.800;2022-12-18T10:32:28;17.70;33.80
1976;DHT22;988;48.016;7.800;2022-12-18T10:34:56;17.70;35.80
1976;DHT22;988;48.016;7.800;2022-12-18T10:37:25;18.00;34.10
1976;DHT22;988;48.016;7.800;2022-12-18T10:40:15;17.70;32.40
1976;DHT22;988;48.016;7.800;2022-12-18T10:43:03;18.00;33.70
1976;DHT22;988;48.016;7.800;2022-12-18T10:45:31;18.50;34.20
1976;DHT22;988;48.016;7.800;2022-12-18T10:47:59;19.90;33.00
1976;DHT22;988;48.016;7.800;2022-12-18T10:50:34;20.60;32.40
1976;DHT22;988;48.016;7.800;2022-12-18T10:53:01;20.00;30.60
1976;DHT22;988;48.016;7.800;2022-12-18T10:55:35;20.50;31.90
1976;DHT22;988;48.016;7.800;2022-12-18T10:58:30;19.30;31.90
1976;DHT22;988;48.016;7.800;2022-12-18T11:01:04;18.80;34.10
1976;DHT22;988;48.016;7.800;2022-12-18T11:06:18;16.70;35.50
1976;DHT22;988;48.016;7.800;2022-12-18T11:09:03;15.80;35.50
1976;DHT22;988;48.016;7.800;2022-12-18T11:11:29;13.50;37.00
1976;DHT22;988;48.016;7.800;2022-12-18T11:14:05;12.10;41.50
1976;DHT22;988;48.016;7.800;2022-12-18T11:16:43;10.70;42.10
1976;DHT22;988;48.016;7.800;2022-12-18T11:19:20;10.20;45.60
1976;DHT22;988;48.016;7.800;2022-12-18T11:21:47;9.90;46.50
1976;DHT22;988;48.016;7.800;2022-12-18T11:24:32;10.40;44.40
1976;DHT22;988;48.016;7.800;2022-12-18T11:27:05;8.60;47.60
1976;DHT22;988;48.016;7.800;2022-12-18T11:35:10;7.60;49.60
1976;DHT22;988;48.016;7.800;2022-12-18T11:37:38;8.30;50.00
1976;DHT22;988;48.016;7.800;2022-12-18T11:40:15;9.30;48.80
1976;DHT22;988;48.016;7.800;2022-12-18T11:45:34;12.30;44.10
1976;DHT22;988;48.016;7.800;2022-12-18T11:48:24;12.10;42.40
1976;DHT22;988;48.016;7.800;2022-12-18T11:50:56;12.70;42.00
1976;DHT22;988;48.016;7.800;2022-12-18T11:53:22;11.40;42.80
1976;DHT22;988;48.016;7.800;2022-12-18T12:04:09;11.90;44.10
1976;DHT22;988;48.016;7.800;2022-12-18T12:09:57;11.40;43.50
1976;DHT22;988;48.016;7.800;2022-12-18T12:15:34;10.10;47.20
1976;DHT22;988;48.016;7.800;2022-12-18T12:38:14;7.20;52.40
1976;DHT22;988;48.016;7.800;2022-12-18T12:40:47;7.40;53.20
1976;DHT22;988;48.016;7.800;2022-12-18T12:43:28;6.70;54.70
1976;DHT22;988;48.016;7.800;2022-12-18T12:51:09;6.10;57.20
1976;DHT22;988;48.016;7.800;2022-12-18T12:53:37;6.30;57.60
1976;DHT22;988;48.016;7.800;2022-12-18T12:56:04;6.10;57.20
1976;DHT22;988;48.016;7.800;2022-12-18T13:03:58;6.00;59.00
1976;DHT22;988;48.016;7.800;2022-12-18T13:06:53;5.10;60.30
1976;DHT22;988;48.016;7.800;2022-12-18T13:09:22;5.00;61.40
1976;DHT22;988;48.016;7.800;2022-12-18T13:11:48;5.00;61.90
1976;DHT22;988;48.016;7.800;2022-12-18T13:14:40;4.40;62.20
1976;DHT22;988;48.016;7.800;2022-12-18T13:19:51;4.90;62.60
1976;DHT22;988;48.016;7.800;2022-12-18T13:25:28;4.00;65.20
1976;DHT22;988;48.016;7.800;2022-12-18T13:28:13;4.10;65.30
1976;DHT22;988;48.016;7.800;2022-12-18T13:30:49;4.00;65.80
1976;DHT22;988;48.016;7.800;2022-12-18T13:41:03;3.00;67.70
1976;DHT22;988;48.016;7.800;2022-12-18T13:43:39;3.10;69.30
1976;DHT22;988;48.016;7.800;2022-12-18T13:49:06;3.30;70.40
1976;DHT22;988;48.016;7.800;2022-12-18T13:51:49;3.20;70.20
1976;DHT22;988;48.016;7.800;2022-12-18T13:56:49;3.10;70.80
1976;DHT22;988;48.016;7.800;2022-12-18T13:59:32;3.10;71.60
1976;DHT22;988;48.016;7.800;2022-12-18T14:02:00;3.00;71.70
1976;DHT22;988;48.016;7.800;2022-12-18T14:04:29;2.20;71.70
1976;DHT22;988;48.016;7.800;2022-12-18T14:09:46;2.30;74.10
1976;DHT22;988;48.016;7.800;2022-12-18T14:12:20;2.10;74.80
1976;DHT22;988;48.016;7.800;2022-12-18T14:15:12;2.00;76.40
1976;DHT22;988;48.016;7.800;2022-12-18T14:17:45;2.00;75.50
1976;DHT22;988;48.016;7.800;2022-12-18T14:20:15;1.80;77.80
1976;DHT22;988;48.016;7.800;2022-12-18T14:22:47;1.50;77.90
1976;DHT22;988;48.016;7.800;2022-12-18T14:25:21;1.90;78.40
1976;DHT22;988;48.016;7.800;2022-12-18T14:28:07;2.00;78.60
1976;DHT22;988;48.016;7.800;2022-12-18T14:30:41;2.00;78.90
1976;DHT22;988;48.016;7.800;2022-12-18T14:33:18;1.90;79.10
1976;DHT22;988;48.016;7.800;2022-12-18T14:35:58;1.70;80.60
1976;DHT22;988;48.016;7.800;2022-12-18T14:38:33;1.20;81.00
1976;DHT22;988;48.016;7.800;2022-12-18T14:41:06;1.40;82.40
1976;DHT22;988;48.016;7.800;2022-12-18T14:43:37;1.20;82.30
1976;DHT22;988;48.016;7.800;2022-12-18T14:46:05;1.00;83.00
1976;DHT22;988;48.016;7.800;2022-12-18T14:48:36;1.00;84.30
1976;DHT22;988;48.016;7.800;2022-12-18T14:51:15;0.90;84.50
1976;DHT22;988;48.016;7.800;2022-12-18T14:53:47;0.90;84.80
1976;DHT22;988;48.016;7.800;2022-12-18T14:56:16;0.70;85.60
1976;DHT22;988;48.016;7.800;2022-12-18T14:58:53;0.80;86.30
1976;DHT22;988;48.016;7.800;2022-12-18T15:01:23;0.40;87.10
1976;DHT22;988;48.016;7.800;2022-12-18T15:03:50;0.30;88.20
1976;DHT22;988;48.016;7.800;2022-12-18T15:08:56;0.60;88.90
1976;DHT22;988;48.016;7.800;2022-12-18T15:13:51;0.40;89.60
1976;DHT22;988;48.016;7.800;2022-12-18T15:16:17;0.30;90.20
1976;DHT22;988;48.016;7.800;2022-12-18T15:18:43;0.20;90.60
1976;DHT22;988;48.016;7.800;2022-12-18T15:21:11;0.20;91.00
1976;DHT22;988;48.016;7.800;2022-12-18T15:26:12;0.30;91.90
1976;DHT22;988;48.016;7.800;2022-12-18T15:28:59;0.30;92.10
1976;DHT22;988;48.016;7.800;2022-12-18T15:31:29;0.30;92.10
1976;DHT22;988;48.016;7.800;2022-12-18T15:36:23;0.40;92.40
1976;DHT22;988;48.016;7.800;2022-12-18T15:38:53;0.30;92.30
1976;DHT22;988;48.016;7.800;2022-12-18T15:41:21;0.30;92.70
1976;DHT22;988;48.016;7.800;2022-12-18T15:43:49;0.20;92.70
1976;DHT22;988;48.016;7.800;2022-12-18T15:46:25;0.20;92.90
1976;DHT22;988;48.016;7.800;2022-12-18T15:48:56;0.10;92.80
1976;DHT22;988;48.016;7.800;2022-12-18T15:51:52;0.10;93.00
1976;DHT22;988;48.016;7.800;2022-12-18T15:54:18;0.00;94.00
1976;DHT22;988;48.016;7.800;2022-12-18T15:57:04;-0.10;94.10
1976;DHT22;988;48.016;7.800;2022-12-18T15:59:48;-0.40;94.80
1976;DHT22;988;48.016;7.800;2022-12-18T16:02:16;-0.30;95.20
1976;DHT22;988;48.016;7.800;2022-12-18T16:04:42;-0.30;95.70
1976;DHT22;988;48.016;7.800;2022-12-18T16:07:09;-0.30;95.80
1976;DHT22;988;48.016;7.800;2022-12-18T16:09:35;-0.30;96.10
1976;DHT22;988;48.016;7.800;2022-12-18T16:12:01;-0.30;96.70
1976;DHT22;988;48.016;7.800;2022-12-18T16:14:28;-0.20;97.10
1976;DHT22;988;48.016;7.800;2022-12-18T16:17:00;-0.20;97.10
1976;DHT22;988;48.016;7.800;2022-12-18T16:19:26;-0.30;97.60
1976;DHT22;988;48.016;7.800;2022-12-18T16:21:53;-0.30;97.80
1976;DHT22;988;48.016;7.800;2022-12-18T16:24:31;-0.30;98.20
1976;DHT22;988;48.016;7.800;2022-12-18T16:26:58;-0.30;98.60
1976;DHT22;988;48.016;7.800;2022-12-18T16:29:27;-0.30;98.60
1976;DHT22;988;48.016;7.800;2022-12-18T16:31:54;-0.30;99.00
1976;DHT22;988;48.016;7.800;2022-12-18T16:34:23;-0.50;99.50
1976;DHT22;988;48.016;7.800;2022-12-18T16:37:19;-0.50;99.80
1976;DHT22;988;48.016;7.800;2022-12-18T16:39:45;-0.40;99.90
1976;DHT22;988;48.016;7.800;2022-12-18T16:42:13;-0.50;99.90
1976;DHT22;988;48.016;7.800;2022-12-18T16:44:45;-0.40;99.90
1976;DHT22;988;48.016;7.800;2022-12-18T16:47:15;-0.40;99.90
1976;DHT22;988;48.016;7.800;2022-12-18T16:49:42;-0.30;99.90
1976;DHT22;988;48.016;7.800;2022-12-18T16:52:10;-0.30;99.90
1976;DHT22;988;48.016;7.800;2022-12-18T16:54:36;-0.30;99.90
1976;DHT22;988;48.016;7.800;2022-12-18T16:57:02;-0.40;99.90
1976;DHT22;988;48.016;7.800;2022-12-18T16:59:29;-0.40;99.90
1976;DHT22;988;48.016;7.800;2022-12-18T17:01:55;-0.30;99.90
1976;DHT22;988;48.016;7.800;2022-12-18T17:04:22;-0.30;99.90
1976;DHT22;988;48.016;7.800;2022-12-18T17:06:47;-0.20;99.90
1976;DHT22;988;48.016;7.800;2022-12-18T17:09:17;-0.20;99.90
1976;DHT22;988;48.016;7.800;2022-12-18T17:11:49;-0.20;99.90
1976;DHT22;988;48.016;7.800;2022-12-18T17:14:18;-0.20;99.90
1976;DHT22;988;48.016;7.800;2022-12-18T17:16:44;-0.20;99.90
1976;DHT22;988;48.016;7.800;2022-12-18T17:19:11;-0.30;99.90
1976;DHT22;988;48.016;7.800;2022-12-18T17:21:37;-0.30;99.90
1976;DHT22;988;48.016;7.800;2022-12-18T17:24:02;-0.40;99.90
1976;DHT22;988;48.016;7.800;2022-12-18T17:26:37;-0.40;99.90
1976;DHT22;988;48.016;7.800;2022-12-18T17:29:03;-0.40;99.90
1976;DHT22;988;48.016;7.800;2022-12-18T17:31:29;-0.20;99.90
1976;DHT22;988;48.016;7.800;2022-12-18T17:33:55;-0.30;99.90
1976;DHT22;988;48.016;7.800;2022-12-18T17:36:21;-0.20;99.90
1976;DHT22;988;48.016;7.800;2022-12-18T17:38:52;-0.40;99.90
1976;DHT22;988;48.016;7.800;2022-12-18T17:41:18;-0.30;99.90
1976;DHT22;988;48.016;7.800;2022-12-18T17:43:43;-0.30;99.90
1976;DHT22;988;48.016;7.800;2022-12-18T17:46:14;-0.30;99.90
1976;DHT22;988;48.016;7.800;2022-12-18T17:48:45;0.00;99.90
1976;DHT22;988;48.016;7.800;2022-12-18T17:51:12;-0.10;99.90
1976;DHT22;988;48.016;7.800;2022-12-18T17:53:38;-0.40;99.90
1976;DHT22;988;48.016;7.800;2022-12-18T17:56:04;-0.10;99.90
1976;DHT22;988;48.016;7.800;2022-12-18T17:58:31;-0.30;99.90
1976;DHT22;988;48.016;7.800;2022-12-18T18:00:57;-0.20;99.90
1976;DHT22;988;48.016;7.800;2022-12-18T18:03:25;-0.30;99.90
1976;DHT22;988;48.016;7.800;2022-12-18T18:05:55;-0.40;99.90
1976;DHT22;988;48.016;7.800;2022-12-18T18:08:21;-0.40;99.90
1976;DHT22;988;48.016;7.800;2022-12-18T18:10:47;-0.60;99.90
1976;DHT22;988;48.016;7.800;2022-12-18T18:13:31;-0.60;99.90
1976;DHT22;988;48.016;7.800;2022-12-18T18:16:15;-0.50;99.90
1976;DHT22;988;48.016;7.800;2022-12-18T18:18:41;-0.50;99.90
1976;DHT22;988;48.016;7.800;2022-12-18T18:21:08;-0.40;99.90
1976;DHT22;988;48.016;7.800;2022-12-18T18:23:34;-0.30;99.90
1976;DHT22;988;48.016;7.800;2022-12-18T18:26:07;-0.50;99.90
1976;DHT22;988;48.016;7.800;2022-12-18T18:28:34;-0.80;99.90
1976;DHT22;988;48.016;7.800;2022-12-18T18:31:08;-0.90;99.90
1976;DHT22;988;48.016;7.800;2022-12-18T18:33:34;-0.90;99.90
1976;DHT22;988;48.016;7.800;2022-12-18T18:36:00;-0.60;99.90
1976;DHT22;988;48.016;7.800;2022-12-18T18:38:27;-0.80;99.90
1976;DHT22;988;48.016;7.800;2022-12-18T18:41:00;-0.90;99.90
1976;DHT22;988;48.016;7.800;2022-12-18T18:43:27;-0.90;99.90
1976;DHT22;988;48.016;7.800;2022-12-18T18:46:03;-0.80;99.90
1976;DHT22;988;48.016;7.800;2022-12-18T18:48:36;-0.80;99.90